Time;durP1;ratioP1;P1;durP2;ratioP2;P2;SDS_P1;SDS_P2;PMS_P1;PMS_P2;Temp;Humidity;BMP_temperature;BMP_pressure;BME280_temperature;BME280_humidity;BME280_pressure;Samples;Min_cycle;Max_cycle;Signal;HPM_P1;HPM_P2
2022/07/23 00:00:08;;;;;;;4.82;2.83;;;;;;;18.82;70.54;101890.19;4940319;28;20050;-71
2022/07/23 00:02:33;;;;;;;3.90;2.90;;;;;;;18.86;71.20;101894.53;4940057;28;20033;-70
2022/07/23 00:04:59;;;;;;;6.95;2.90;;;;;;;18.84;70.59;101896.25;4941442;28;20035;-71
2022/07/23 00:07:24;;;;;;;4.40;2.60;;;;;;;18.84;70.25;101902.34;4940921;28;20130;-71
2022/07/23 00:09:49;;;;;;;7.05;2.83;;;;;;;18.78;70.30;101906.63;4940325;28;20466;-71
2022/07/23 00:12:15;;;;;;;5.05;3.33;;;;;;;18.75;69.92;101904.88;4939612;28;20040;-71
2022/07/23 00:14:40;;;;;;;5.47;3.10;;;;;;;18.70;70.25;101897.00;4942115;28;20046;-71
2022/07/23 00:17:06;;;;;;;5.03;2.88;;;;;;;18.67;70.59;101906.50;4941369;28;20046;-71
2022/07/23 00:19:31;;;;;;;6.25;3.17;;;;;;;18.63;70.65;101902.97;4937352;28;20043;-71
2022/07/23 00:21:56;;;;;;;4.57;2.85;;;;;;;18.65;70.90;101901.25;4941813;28;20031;-71
2022/07/23 00:24:22;;;;;;;5.97;3.17;;;;;;;18.60;71.40;101900.31;4943555;28;20070;-71
2022/07/23 00:26:47;;;;;;;5.28;3.47;;;;;;;18.61;71.57;101895.97;4940118;28;20153;-71
2022/07/23 00:29:13;;;;;;;4.72;3.17;;;;;;;18.56;71.97;101901.13;4939004;28;20044;-71
2022/07/23 00:31:38;;;;;;;6.18;3.00;;;;;;;18.57;72.25;101902.03;4939052;28;20090;-71
2022/07/23 00:34:03;;;;;;;6.25;3.10;;;;;;;18.56;72.13;101906.34;4940653;28;20117;-71
2022/07/23 00:36:31;;;;;;;6.93;3.60;;;;;;;18.56;72.33;101893.31;4940070;28;20031;-71
2022/07/23 00:38:56;;;;;;;5.15;3.85;;;;;;;18.50;72.82;101893.25;4943593;28;20032;-71
2022/07/23 00:41:22;;;;;;;4.45;3.50;;;;;;;18.51;72.37;101895.00;4940864;28;20051;-71
2022/07/23 00:43:47;;;;;;;8.23;3.75;;;;;;;18.46;72.91;101894.94;4940815;28;20405;-71
2022/07/23 00:46:12;;;;;;;8.68;4.03;;;;;;;18.46;73.03;101891.47;4939858;28;20405;-71
2022/07/23 00:48:38;;;;;;;6.30;3.63;;;;;;;18.46;72.55;101891.47;4940816;28;20586;-71
2022/07/23 00:51:05;;;;;;;5.55;3.90;;;;;;;18.42;72.84;101894.88;4943968;28;20062;-71
2022/07/23 00:53:31;;;;;;;7.75;4.10;;;;;;;18.39;73.02;101893.13;4943152;28;20039;-70
2022/07/23 00:55:58;;;;;;;5.53;3.75;;;;;;;18.35;72.89;101899.16;4940649;28;20046;-70
2022/07/23 00:58:24;;;;;;;6.63;4.18;;;;;;;18.36;72.82;101894.81;4939490;28;20031;-70
2022/07/23 01:00:49;;;;;;;7.40;4.47;;;;;;;18.36;73.22;101889.59;4935069;28;20024;-70
2022/07/23 01:03:15;;;;;;;8.45;4.35;;;;;;;18.32;72.76;101893.91;4940714;28;20046;-69
2022/07/23 01:05:40;;;;;;;5.88;4.35;;;;;;;18.31;72.93;101892.13;4938569;28;20047;-70
2022/07/23 01:08:07;;;;;;;5.00;4.13;;;;;;;18.29;73.25;101893.88;4940603;28;20034;-70
2022/07/23 01:10:32;;;;;;;8.75;4.30;;;;;;;18.22;73.23;101887.72;4937502;28;20047;-70
2022/07/23 01:13:00;;;;;;;6.97;4.35;;;;;;;18.21;73.18;101872.06;4938039;28;20055;-70
2022/07/23 01:15:26;;;;;;;6.78;4.28;;;;;;;18.22;73.14;101882.50;4938959;28;21118;-70
2022/07/23 01:17:52;;;;;;;10.18;4.80;;;;;;;18.11;73.36;101868.47;4939521;28;20051;-70
2022/07/23 01:20:17;;;;;;;8.70;5.32;;;;;;;18.19;73.44;101882.44;4936674;28;20038;-70
2022/07/23 01:22:43;;;;;;;7.90;5.38;;;;;;;18.15;73.32;101880.69;4937200;28;20129;-70
2022/07/23 01:25:09;;;;;;;8.88;5.32;;;;;;;18.13;73.22;101879.75;4936991;28;20433;-70
2022/07/23 01:27:34;;;;;;;7.10;5.40;;;;;;;18.15;73.02;101877.22;4937795;28;20520;-70
2022/07/23 01:30:01;;;;;;;8.43;5.70;;;;;;;18.11;73.44;101878.00;4941895;28;20417;-70
2022/07/23 01:32:27;;;;;;;8.65;5.80;;;;;;;18.09;73.66;101872.78;4939304;28;20042;-70
2022/07/23 01:34:52;;;;;;;9.32;6.05;;;;;;;18.07;73.78;101874.47;4937003;28;20039;-71
2022/07/23 01:37:17;;;;;;;8.15;5.78;;;;;;;18.07;73.67;101882.28;4940547;28;20040;-71
2022/07/23 01:39:43;;;;;;;9.23;6.13;;;;;;;18.03;73.90;101875.31;4942750;28;20490;-71
2022/07/23 01:42:08;;;;;;;9.85;6.35;;;;;;;17.96;73.79;101873.47;4939008;28;20459;-71
2022/07/23 01:44:34;;;;;;;11.40;7.90;;;;;;;18.01;73.84;101881.31;4939791;28;20169;-70
2022/07/23 01:46:59;;;;;;;11.98;6.75;;;;;;;17.98;73.79;101876.97;4941069;28;20023;-70
2022/07/23 01:49:24;;;;;;;9.20;7.00;;;;;;;17.95;73.78;101869.97;4939228;28;20039;-70
2022/07/23 01:52:02;;;;;;;11.65;7.43;;;;;;;17.92;74.28;101871.69;4939039;28;20097;-71
2022/07/23 01:54:32;;;;;;;10.10;8.15;;;;;;;17.93;74.27;101873.44;4938464;28;20123;-70
2022/07/23 01:56:58;;;;;;;9.27;7.03;;;;;;;17.89;74.05;101874.22;4942363;28;20035;-70
2022/07/23 01:59:25;;;;;;;10.32;7.80;;;;;;;17.84;74.36;101874.19;4936123;28;20081;-70
2022/07/23 02:01:51;;;;;;;10.52;7.28;;;;;;;17.87;74.35;101875.94;4936906;28;20085;-70
2022/07/23 02:04:17;;;;;;;8.93;7.38;;;;;;;17.84;74.29;101873.31;4943733;28;20031;-70
2022/07/23 02:06:43;;;;;;;11.68;7.43;;;;;;;17.78;74.50;101874.09;4937150;28;20093;-70
2022/07/23 02:09:08;;;;;;;9.35;7.65;;;;;;;17.70;74.14;101865.25;4940024;28;20055;-70
2022/07/23 02:11:33;;;;;;;10.88;7.78;;;;;;;17.72;74.35;101862.72;4937137;28;20494;-70
2022/07/23 02:13:59;;;;;;;10.15;7.90;;;;;;;17.69;74.01;101861.78;4939502;28;20039;-70
2022/07/23 02:16:24;;;;;;;11.48;7.60;;;;;;;17.66;74.70;101864.34;4939126;28;20031;-70
2022/07/23 02:18:49;;;;;;;10.65;8.20;;;;;;;17.58;74.78;101857.28;4937701;28;20063;-70
2022/07/23 02:21:15;;;;;;;8.43;7.57;;;;;;;17.58;74.81;101860.75;4941779;28;20035;-70
2022/07/23 02:23:40;;;;;;;10.75;8.18;;;;;;;17.56;74.94;101862.44;4939885;28;20038;-70
2022/07/23 02:26:05;;;;;;;13.40;7.50;;;;;;;17.56;75.04;101859.84;4936616;28;20031;-70
2022/07/23 02:28:31;;;;;;;9.38;7.38;;;;;;;17.55;74.88;101862.44;4937044;28;20043;-70
2022/07/23 02:30:56;;;;;;;9.40;7.65;;;;;;;17.55;74.77;101865.03;4940550;28;20036;-70
2022/07/23 02:33:22;;;;;;;8.90;7.50;;;;;;;17.50;74.99;101859.75;4939290;28;21285;-70
2022/07/23 02:35:47;;;;;;;10.15;7.47;;;;;;;17.46;75.14;101860.56;4934270;28;20053;-70
2022/07/23 02:38:13;;;;;;;8.18;7.05;;;;;;;17.46;74.96;101863.16;4938584;28;20123;-70
2022/07/23 02:40:38;;;;;;;7.85;6.95;;;;;;;17.41;75.11;101863.09;4937516;28;20490;-70
2022/07/23 02:43:04;;;;;;;8.68;7.25;;;;;;;17.39;75.35;101858.72;4937217;28;20073;-70
2022/07/23 02:45:29;;;;;;;10.38;7.50;;;;;;;17.38;75.14;101867.38;4945080;28;20032;-70
2022/07/23 02:47:54;;;;;;;10.80;7.50;;;;;;;17.34;75.42;101870.75;4929467;28;20142;-70
2022/07/23 02:50:20;;;;;;;9.00;7.35;;;;;;;17.32;75.24;101872.47;4941764;28;20412;-70
2022/07/23 02:52:45;;;;;;;9.25;7.40;;;;;;;17.30;75.78;101876.78;4939758;28;20043;-70
2022/07/23 02:55:11;;;;;;;9.52;8.07;;;;;;;17.26;75.79;101873.25;4941087;28;20054;-70
2022/07/23 02:57:37;;;;;;;8.88;7.80;;;;;;;17.27;75.97;101874.13;4943822;28;20035;-69
2022/07/23 03:00:04;;;;;;;10.80;7.95;;;;;;;17.23;76.03;101874.91;4939652;28;20043;-70
2022/07/23 03:02:30;;;;;;;12.02;8.38;;;;;;;17.18;75.71;101879.16;4944105;28;20041;-70
2022/07/23 03:04:55;;;;;;;10.57;8.35;;;;;;;17.21;76.05;101876.59;4939774;28;20036;-70
2022/07/23 03:07:20;;;;;;;11.18;8.30;;;;;;;17.16;76.01;101874.78;4944313;28;20039;-69
2022/07/23 03:09:47;;;;;;;11.10;8.32;;;;;;;17.16;76.03;101885.19;4942017;28;20386;-70
2022/07/23 03:12:13;;;;;;;10.63;8.07;;;;;;;17.11;76.38;101873.00;4938227;28;20478;-70
2022/07/23 03:14:38;;;;;;;10.27;8.20;;;;;;;17.06;76.28;101875.50;4945612;28;20042;-69
2022/07/23 03:17:03;;;;;;;11.73;8.07;;;;;;;17.05;76.29;101878.09;4957305;28;20111;-70
2022/07/23 03:19:29;;;;;;;12.18;8.65;;;;;;;17.09;76.64;101883.34;4940758;28;20031;-70
2022/07/23 03:21:54;;;;;;;8.90;7.68;;;;;;;17.06;76.55;101888.50;4942535;28;20465;-71
2022/07/23 03:24:20;;;;;;;9.00;8.02;;;;;;;17.05;76.33;101881.56;4941679;28;20533;-70
2022/07/23 03:26:45;;;;;;;8.82;7.90;;;;;;;17.06;76.47;101882.44;4940379;28;20528;-71
2022/07/23 03:29:11;;;;;;;9.90;7.80;;;;;;;16.99;76.69;101884.06;4940297;28;20130;-71
2022/07/23 03:31:36;;;;;;;13.38;7.93;;;;;;;17.02;76.73;101886.69;4944627;28;20031;-69
2022/07/23 03:34:02;;;;;;;17.17;7.53;;;;;;;16.96;76.65;101878.78;4937210;28;20356;-70
2022/07/23 03:36:27;;;;;;;9.60;7.85;;;;;;;16.92;76.89;101882.16;4940969;28;20705;-70
2022/07/23 03:38:53;;;;;;;10.68;7.47;;;;;;;16.99;76.82;101888.38;4938331;28;20044;-70
2022/07/23 03:41:20;;;;;;;12.38;8.10;;;;;;;16.93;76.76;101891.72;4937435;28;20504;-70
2022/07/23 03:43:45;;;;;;;9.95;7.68;;;;;;;16.92;76.78;101882.16;4942612;28;20039;-70
2022/07/23 03:46:10;;;;;;;9.40;8.02;;;;;;;16.90;76.98;101886.47;4940763;28;20058;-71
2022/07/23 03:48:36;;;;;;;9.65;7.38;;;;;;;16.88;76.67;101882.97;4939044;28;20050;-71
2022/07/23 03:51:02;;;;;;;10.18;6.93;;;;;;;16.79;77.23;101882.78;4943799;28;20490;-71
2022/07/23 03:53:27;;;;;;;11.05;7.18;;;;;;;16.81;77.19;101887.19;4940263;28;20038;-70
2022/07/23 03:55:52;;;;;;;8.90;6.80;;;;;;;16.80;76.99;101881.94;4938406;28;20023;-70
2022/07/23 03:58:18;;;;;;;8.38;6.88;;;;;;;16.82;77.19;101885.47;4942727;28;20031;-70
2022/07/23 04:00:43;;;;;;;11.65;7.30;;;;;;;16.83;77.40;101884.59;4938029;28;20061;-70
2022/07/23 04:03:08;;;;;;;9.88;7.00;;;;;;;16.76;77.29;101886.22;4960884;28;20049;-70
2022/07/23 04:05:34;;;;;;;10.25;7.00;;;;;;;16.81;77.08;101886.31;4941186;28;20033;-70
2022/07/23 04:07:59;;;;;;;8.75;6.60;;;;;;;16.78;77.19;101894.03;4941408;28;20934;-70
2022/07/23 04:10:25;;;;;;;11.43;7.18;;;;;;;16.77;77.17;101898.34;4942074;28;20029;-70
2022/07/23 04:12:50;;;;;;;9.82;6.93;;;;;;;16.78;77.12;101901.81;4938460;28;20406;-70
2022/07/23 04:15:15;;;;;;;9.82;7.20;;;;;;;16.75;77.34;101904.38;4941394;28;20141;-70
2022/07/23 04:17:41;;;;;;;8.18;6.85;;;;;;;16.77;77.29;101898.34;4937970;28;20524;-71
2022/07/23 04:20:07;;;;;;;9.10;7.65;;;;;;;16.71;77.40;101902.56;4940062;28;20042;-70
2022/07/23 04:22:32;;;;;;;10.18;7.28;;;;;;;16.66;77.71;101902.41;4938610;28;20036;-70
2022/07/23 04:24:57;;;;;;;11.40;7.50;;;;;;;16.67;78.15;101896.38;4937318;28;20071;-70
2022/07/23 04:27:23;;;;;;;8.60;7.60;;;;;;;16.71;77.77;101907.75;4940530;28;20031;-70
2022/07/23 04:29:48;;;;;;;12.98;7.40;;;;;;;16.65;78.34;101907.59;4942242;28;20031;-70
2022/07/23 04:32:13;;;;;;;8.90;6.95;;;;;;;16.67;77.94;101900.69;4939864;28;20126;-70
2022/07/23 04:34:39;;;;;;;11.70;7.53;;;;;;;16.67;77.66;101904.16;4938289;28;20126;-70
2022/07/23 04:37:04;;;;;;;8.90;7.47;;;;;;;16.70;77.93;101911.16;4938016;28;20397;-70
2022/07/23 04:39:30;;;;;;;8.73;7.35;;;;;;;16.69;77.85;101912.88;4940643;28;20074;-71
2022/07/23 04:41:55;;;;;;;11.00;7.55;;;;;;;16.68;78.21;101913.72;4939811;28;20027;-71
2022/07/23 04:44:21;;;;;;;11.27;7.30;;;;;;;16.67;78.23;101911.09;4940012;28;20047;-71
2022/07/23 04:46:46;;;;;;;13.32;7.53;;;;;;;16.70;78.26;101916.34;4942808;28;20431;-69
2022/07/23 04:49:12;;;;;;;8.73;7.38;;;;;;;16.69;78.16;101922.41;4941701;28;20043;-71
2022/07/23 04:51:37;;;;;;;8.52;7.32;;;;;;;16.70;77.98;101924.16;4941098;28;20092;-71
2022/07/23 04:54:03;;;;;;;9.38;7.20;;;;;;;16.68;78.36;101916.31;4938444;28;20031;-71
2022/07/23 04:56:28;;;;;;;9.48;7.47;;;;;;;16.60;78.78;101921.34;4939103;28;21468;-71
2022/07/23 04:58:53;;;;;;;9.73;7.22;;;;;;;16.70;78.91;101929.34;4947797;28;20031;-69
2022/07/23 05:01:19;;;;;;;9.05;7.32;;;;;;;16.69;78.59;101927.59;4943812;28;20027;-70
2022/07/23 05:03:44;;;;;;;9.30;7.30;;;;;;;16.69;79.05;101922.41;4943097;28;20035;-70
2022/07/23 05:06:09;;;;;;;11.05;7.10;;;;;;;16.70;78.99;101922.47;4943044;28;20039;-70
2022/07/23 05:08:35;;;;;;;8.13;7.13;;;;;;;16.73;79.35;101924.22;4944893;28;20046;-69
2022/07/23 05:11:00;;;;;;;10.63;7.25;;;;;;;16.74;79.33;101934.63;4945492;28;20027;-70
2022/07/23 05:13:25;;;;;;;10.35;7.25;;;;;;;16.74;79.25;101932.03;4945696;28;20054;-70
2022/07/23 05:15:51;;;;;;;10.30;7.07;;;;;;;16.75;79.15;101928.63;4944644;28;20039;-69
2022/07/23 05:18:17;;;;;;;8.07;7.07;;;;;;;16.80;78.94;101934.75;4942386;28;20126;-69
2022/07/23 05:20:43;;;;;;;8.38;6.85;;;;;;;16.83;78.60;101942.63;4945502;28;20042;-71
2022/07/23 05:23:08;;;;;;;8.60;6.78;;;;;;;16.84;78.80;101933.09;4940345;28;20444;-70
2022/07/23 05:25:33;;;;;;;8.73;7.35;;;;;;;16.84;79.41;101938.31;4940971;28;20051;-70
2022/07/23 05:27:59;;;;;;;8.50;6.95;;;;;;;16.94;78.77;101936.78;4922765;28;20132;-70
2022/07/23 05:30:24;;;;;;;8.10;6.57;;;;;;;16.91;79.06;101934.09;4938729;28;20027;-69
2022/07/23 05:32:51;;;;;;;9.23;7.13;;;;;;;16.96;79.22;101941.13;4948546;28;20034;-70
2022/07/23 05:35:17;;;;;;;7.88;6.80;;;;;;;16.99;78.62;101943.81;4930446;28;20043;-70
2022/07/23 05:37:42;;;;;;;8.15;6.80;;;;;;;17.06;78.62;101945.66;4944278;28;20122;-70
2022/07/23 05:40:10;;;;;;;11.38;7.15;;;;;;;17.10;78.61;101947.44;4945314;28;20402;-70
2022/07/23 05:42:39;;;;;;;9.02;7.50;;;;;;;17.13;78.80;101949.25;4947245;28;20071;-70
2022/07/23 05:45:05;;;;;;;7.78;6.75;;;;;;;17.19;78.84;101946.78;4932043;28;20114;-70
2022/07/23 05:47:59;;;;;;;8.48;7.20;;;;;;;17.27;78.52;101949.50;4949404;28;20042;-70
2022/07/23 05:50:25;;;;;;;8.68;7.10;;;;;;;17.28;78.84;101959.91;4942591;28;21475;-71
2022/07/23 05:52:50;;;;;;;10.13;7.15;;;;;;;17.32;79.18;101951.31;4938729;28;20064;-69
2022/07/23 05:55:15;;;;;;;11.55;7.20;;;;;;;17.38;78.47;101956.63;4942614;28;20041;-70
2022/07/23 05:57:41;;;;;;;11.07;7.32;;;;;;;17.41;78.64;101959.31;4929729;28;20043;-70
2022/07/23 06:00:08;;;;;;;9.60;6.78;;;;;;;17.48;78.70;101957.69;4939363;28;20085;-70
2022/07/23 06:02:33;;;;;;;8.65;7.30;;;;;;;17.54;78.62;101965.59;4946108;28;20084;-70
2022/07/23 06:04:59;;;;;;;8.23;6.68;;;;;;;17.57;78.78;101965.63;4939831;28;20069;-70
2022/07/23 06:07:24;;;;;;;10.38;6.85;;;;;;;17.62;78.03;101973.50;4943255;28;20035;-70
2022/07/23 06:09:49;;;;;;;9.45;6.60;;;;;;;17.64;78.17;101969.19;4936759;28;20058;-70
2022/07/23 06:12:16;;;;;;;10.50;7.25;;;;;;;17.66;78.00;101968.41;4937949;28;20043;-69
2022/07/23 06:14:41;;;;;;;12.05;7.30;;;;;;;17.64;77.84;101966.59;4943152;28;20043;-70
2022/07/23 06:17:07;;;;;;;8.93;6.90;;;;;;;17.73;77.23;101973.72;4947912;28;20028;-70
2022/07/23 06:19:32;;;;;;;11.98;6.57;;;;;;;17.73;77.29;101971.13;4948902;28;20053;-70
2022/07/23 06:21:58;;;;;;;9.00;6.28;;;;;;;17.83;76.87;101976.47;4943218;28;20047;-70
2022/07/23 06:24:23;;;;;;;10.43;6.55;;;;;;;17.90;77.00;101980.09;4942490;28;20052;-71
2022/07/23 06:26:49;;;;;;;9.50;6.97;;;;;;;18.04;76.80;101977.69;4950771;28;20043;-71
2022/07/23 06:29:14;;;;;;;8.15;6.38;;;;;;;18.05;76.55;101982.91;4945833;28;20092;-71
2022/07/23 06:31:39;;;;;;;8.20;6.07;;;;;;;18.09;74.79;101984.72;4942446;28;20382;-71
2022/07/23 06:34:05;;;;;;;8.52;6.28;;;;;;;18.12;75.43;101969.13;4946789;28;20058;-70
2022/07/23 06:36:30;;;;;;;8.52;6.20;;;;;;;18.30;75.39;101978.94;4929619;29;20060;-70
2022/07/23 06:38:56;;;;;;;9.13;5.43;;;;;;;18.37;73.93;101977.28;4946763;28;20478;-71
2022/07/23 06:41:22;;;;;;;8.55;4.90;;;;;;;18.35;72.83;101976.41;4926849;28;20039;-71
2022/07/23 06:43:48;;;;;;;8.18;4.53;;;;;;;18.52;72.86;101985.31;4949511;28;20031;-71
2022/07/23 06:46:13;;;;;;;6.32;4.20;;;;;;;18.56;72.46;101991.41;4933978;29;20579;-71
2022/07/23 06:48:39;;;;;;;7.35;3.95;;;;;;;18.62;71.97;101979.34;4942656;28;20069;-71
2022/07/23 06:51:04;;;;;;;8.55;4.22;;;;;;;18.71;71.44;101986.44;4943919;28;20042;-71
2022/07/23 06:53:35;;;;;;;7.80;4.22;;;;;;;18.75;71.38;101983.03;4949842;28;20386;-72
2022/07/23 06:56:01;;;;;;;8.90;4.68;;;;;;;18.84;71.30;101983.13;4950195;28;20054;-70
2022/07/23 06:58:26;;;;;;;6.32;3.50;;;;;;;18.99;70.44;101988.53;4965102;28;20035;-71
2022/07/23 07:00:51;;;;;;;6.63;4.07;;;;;;;18.97;70.68;101990.22;4942773;28;20037;-71
2022/07/23 07:03:17;;;;;;;6.63;4.50;;;;;;;19.06;70.40;101983.41;4941030;28;20054;-71
2022/07/23 07:05:43;;;;;;;7.43;4.15;;;;;;;19.15;70.90;101994.78;4939791;28;20347;-71
2022/07/23 07:08:08;;;;;;;8.48;3.95;;;;;;;19.22;69.51;101986.16;4942230;28;20085;-70
2022/07/23 07:10:34;;;;;;;7.25;3.88;;;;;;;19.30;70.23;101986.25;4942487;28;20098;-71
2022/07/23 07:12:59;;;;;;;5.05;4.20;;;;;;;19.32;70.23;101992.34;4940837;28;20031;-70
2022/07/23 07:15:24;;;;;;;6.28;4.30;;;;;;;19.34;69.82;101984.53;4941668;28;20406;-71
2022/07/23 07:17:50;;;;;;;9.32;4.13;;;;;;;19.44;69.87;101995.06;4945338;28;20097;-71
2022/07/23 07:20:16;;;;;;;6.07;3.58;;;;;;;19.49;67.92;101985.56;4938528;28;20142;-72
2022/07/23 07:22:41;;;;;;;6.10;3.20;;;;;;;19.54;68.79;101976.06;4939465;28;20039;-71
2022/07/23 07:25:07;;;;;;;8.23;3.58;;;;;;;19.63;68.65;101975.28;4936959;28;20039;-71
2022/07/23 07:27:32;;;;;;;6.18;3.80;;;;;;;19.69;68.35;101977.94;4941433;28;20442;-71
2022/07/23 07:29:58;;;;;;;6.30;4.55;;;;;;;19.72;66.95;101982.31;4941585;28;20035;-72
2022/07/23 07:32:23;;;;;;;5.40;4.13;;;;;;;19.74;66.91;101986.69;4947083;28;20062;-71
2022/07/23 07:34:49;;;;;;;10.40;3.95;;;;;;;19.84;67.89;101990.25;4931046;28;20114;-71
2022/07/23 07:37:14;;;;;;;8.93;3.85;;;;;;;19.93;68.06;101992.91;4945449;28;20042;-70
2022/07/23 07:39:40;;;;;;;7.78;3.85;;;;;;;19.96;68.04;101987.72;4949839;28;20071;-70
2022/07/23 07:42:05;;;;;;;4.60;2.88;;;;;;;20.05;66.70;101997.34;4951248;28;20035;-73
2022/07/23 07:44:30;;;;;;;4.60;2.53;;;;;;;20.06;63.68;102002.56;4951363;28;20039;-73
2022/07/23 07:46:56;;;;;;;5.07;2.60;;;;;;;20.07;63.96;101993.00;4948459;28;20050;-73
2022/07/23 07:49:22;;;;;;;5.30;3.00;;;;;;;20.09;64.36;101988.69;4948524;28;20114;-73
2022/07/23 07:51:47;;;;;;;4.47;2.60;;;;;;;20.18;65.18;101988.72;4942040;28;20062;-71
2022/07/23 07:54:13;;;;;;;7.68;3.08;;;;;;;20.26;64.84;101989.66;4942166;28;20031;-67
2022/07/23 07:56:38;;;;;;;3.72;3.17;;;;;;;20.31;63.90;101989.66;4944565;29;20153;-68
2022/07/23 07:59:04;;;;;;;5.13;3.30;;;;;;;20.38;64.45;101994.06;4943613;28;20130;-64
2022/07/23 08:01:30;;;;;;;5.68;2.88;;;;;;;20.43;64.76;101994.09;4943076;28;20047;-66
2022/07/23 08:03:55;;;;;;;3.78;2.63;;;;;;;20.53;63.48;101990.72;4945448;28;20027;-69
2022/07/23 08:06:21;;;;;;;4.55;2.85;;;;;;;20.60;63.24;101997.69;4944655;28;20524;-70
2022/07/23 08:08:46;;;;;;;5.22;2.67;;;;;;;20.66;63.54;102000.34;4940808;28;20417;-66
2022/07/23 08:11:12;;;;;;;4.97;2.85;;;;;;;20.70;62.40;102004.72;4943859;28;20042;-71
2022/07/23 08:13:37;;;;;;;5.68;3.25;;;;;;;20.73;61.68;102003.84;4941510;28;21934;-70
2022/07/23 08:16:03;;;;;;;5.28;3.10;;;;;;;20.76;61.41;101999.53;4939917;28;20035;-67
2022/07/23 08:18:28;;;;;;;5.40;2.90;;;;;;;20.79;61.07;101999.53;4944786;28;20062;-73
2022/07/23 08:20:53;;;;;;;5.25;2.95;;;;;;;20.85;61.38;102010.00;4942819;28;20046;-73
2022/07/23 08:23:19;;;;;;;6.75;3.08;;;;;;;20.97;62.70;102018.75;4945163;28;20032;-71
2022/07/23 08:25:46;;;;;;;4.45;2.97;;;;;;;20.88;60.93;102015.25;4946762;28;20056;-68
2022/07/23 08:28:13;;;;;;;4.88;2.80;;;;;;;20.98;61.51;102016.16;4944604;28;20011;-69
2022/07/23 08:30:41;;;;;;;4.22;3.20;;;;;;;21.04;61.40;102015.28;4960785;28;20071;-70
2022/07/23 08:33:11;;;;;;;6.03;3.00;;;;;;;21.06;61.09;102016.19;4943216;28;20473;-67
2022/07/23 08:35:48;;;;;;;6.65;3.30;;;;;;;21.14;61.49;102022.31;4943107;28;20035;-69
2022/07/23 08:38:16;;;;;;;5.25;2.83;;;;;;;21.16;60.72;102024.03;4940881;28;20069;-69
2022/07/23 08:40:45;;;;;;;4.72;2.85;;;;;;;21.22;60.27;102024.94;4941236;28;20070;-70
2022/07/23 08:43:16;;;;;;;6.13;2.88;;;;;;;21.22;60.29;102031.03;4939039;28;20031;-70
2022/07/23 08:45:44;;;;;;;5.47;3.03;;;;;;;21.16;59.52;102031.91;4940719;29;20042;-70
2022/07/23 08:48:21;;;;;;;4.90;3.10;;;;;;;21.18;59.62;102033.66;4941306;28;20031;-69
2022/07/23 08:50:52;;;;;;;6.10;3.58;;;;;;;21.22;59.83;102044.13;4940768;28;20054;-70
2022/07/23 08:53:19;;;;;;;4.43;3.20;;;;;;;21.24;59.43;102034.56;4941008;28;20039;-70
2022/07/23 08:55:49;;;;;;;7.63;3.50;;;;;;;21.33;61.02;102034.59;4939479;28;20092;-69
2022/07/23 08:58:16;;;;;;;6.18;3.22;;;;;;;21.40;60.05;102032.84;4927031;28;20038;-67
2022/07/23 09:00:42;;;;;;;4.63;3.25;;;;;;;21.39;59.72;102026.75;4956078;28;20154;-67
2022/07/23 09:03:15;;;;;;;4.88;3.00;;;;;;;21.51;59.88;102032.88;4931554;28;20043;-69
2022/07/23 09:05:41;;;;;;;9.15;3.90;;;;;;;21.49;58.46;102026.78;4941520;28;20030;-69
2022/07/23 09:08:14;;;;;;;4.38;3.00;;;;;;;21.59;58.43;102020.66;4943699;28;20035;-69
2022/07/23 09:10:43;;;;;;;9.48;3.80;;;;;;;21.62;57.91;102020.69;4945306;28;20509;-68
2022/07/23 09:13:31;;;;;;;5.47;3.22;;;;;;;21.67;58.30;102014.59;4943299;28;20502;-66
2022/07/23 09:16:00;;;;;;;5.38;2.90;;;;;;;21.74;58.73;102019.81;4938597;28;20268;-67
2022/07/23 09:18:44;;;;;;;5.10;3.70;;;;;;;21.69;57.41;102015.44;4945495;28;20470;-67
2022/07/23 09:21:28;;;;;;;5.95;3.33;;;;;;;21.70;57.47;102016.31;4944539;28;20035;-67
2022/07/23 09:24:02;;;;;;;7.60;3.50;;;;;;;21.73;57.28;102013.72;4944483;28;20032;-67
2022/07/23 09:26:34;;;;;;;5.47;3.25;;;;;;;21.76;57.53;102013.69;4945981;28;20394;-67
2022/07/23 09:29:12;;;;;;;4.93;3.28;;;;;;;21.76;58.67;102003.22;4941524;28;20046;-68
2022/07/23 09:31:48;;;;;;;4.85;3.30;;;;;;;21.80;56.55;102007.59;4946595;28;20027;-68
2022/07/23 09:34:30;;;;;;;5.45;3.17;;;;;;;21.82;57.92;102013.69;4942256;28;20035;-67
2022/07/23 09:37:07;;;;;;;5.28;3.40;;;;;;;21.77;57.77;102002.34;4945681;28;20031;-68
2022/07/23 09:39:34;;;;;;;5.95;3.47;;;;;;;21.90;57.80;102014.59;4939074;28;20474;-67
2022/07/23 09:42:26;;;;;;;5.95;3.42;;;;;;;22.02;58.65;102023.28;4943504;28;20497;-68
2022/07/23 09:44:54;;;;;;;7.32;3.38;;;;;;;22.01;59.29;102019.78;4938694;28;20043;-68
2022/07/23 09:47:21;;;;;;;7.45;3.60;;;;;;;21.94;56.29;102024.16;4945146;28;20039;-68
2022/07/23 09:50:08;;;;;;;10.35;3.63;;;;;;;22.06;57.88;102023.28;4945830;28;20043;-68
2022/07/23 09:52:42;;;;;;;5.20;3.80;;;;;;;22.02;56.32;102026.78;4948504;28;20023;-67
2022/07/23 09:55:08;;;;;;;6.40;3.45;;;;;;;22.04;55.64;102035.53;4942222;28;20326;-68
2022/07/23 09:57:34;;;;;;;4.20;3.17;;;;;;;22.13;56.88;102026.81;4946176;28;20027;-68
2022/07/23 10:00:03;;;;;;;3.97;3.42;;;;;;;22.11;56.78;102028.56;4946671;28;20055;-68
2022/07/23 10:02:32;;;;;;;7.55;3.60;;;;;;;22.15;56.07;102019.84;4948507;28;20039;-69
2022/07/23 10:04:58;;;;;;;4.90;3.55;;;;;;;22.21;56.82;102025.06;4942173;28;20397;-69
2022/07/23 10:07:26;;;;;;;6.85;3.50;;;;;;;22.26;56.48;102019.78;4942057;28;20035;-68
2022/07/23 10:09:52;;;;;;;5.93;3.50;;;;;;;22.30;56.15;102019.78;4946160;28;20024;-68
2022/07/23 10:15:00;;;;;;;5.45;3.67;;;;;;;22.25;55.94;102021.53;4945731;28;20050;-69
2022/07/23 10:17:28;;;;;;;5.72;3.15;;;;;;;22.32;54.91;102025.03;4943513;28;20059;-68
2022/07/23 10:19:53;;;;;;;8.73;3.50;;;;;;;22.28;54.38;102018.94;4942786;28;20469;-68
2022/07/23 10:22:37;;;;;;;4.35;3.13;;;;;;;22.31;55.78;102018.91;4941939;28;20066;-69
2022/07/23 10:25:20;;;;;;;4.28;3.20;;;;;;;22.35;55.94;102018.03;4944240;28;20031;-68
2022/07/23 10:28:24;;;;;;;6.25;2.97;;;;;;;22.47;55.74;102017.13;4941100;29;20381;-70
2022/07/23 10:30:52;;;;;;;3.70;2.67;;;;;;;22.46;52.81;102018.88;4946831;28;20112;-68
2022/07/23 10:33:46;;;;;;;3.95;3.13;;;;;;;22.51;54.25;102017.97;4943259;28;20038;-68
2022/07/23 10:36:20;;;;;;;3.72;2.58;;;;;;;22.59;54.22;102024.97;4939394;28;20035;-69
2022/07/23 10:39:05;;;;;;;4.13;3.10;;;;;;;22.67;54.16;102030.16;4941362;28;20059;-67
2022/07/23 10:41:41;;;;;;;5.38;2.72;;;;;;;22.67;53.00;102022.31;4944958;28;20565;-68
2022/07/23 10:44:23;;;;;;;8.10;3.63;;;;;;;22.69;53.53;102025.78;4945328;28;20031;-67
2022/07/23 10:49:43;;;;;;;5.30;3.58;;;;;;;22.72;51.35;102023.16;4942629;28;20039;-68
2022/07/23 10:52:14;;;;;;;4.85;3.88;;;;;;;22.70;52.56;102022.31;4945370;28;20050;-68
2022/07/23 10:54:50;;;;;;;7.40;4.70;;;;;;;22.58;52.50;102024.97;4943402;28;20034;-69
2022/07/23 10:57:18;;;;;;;5.85;4.00;;;;;;;22.64;52.72;102019.72;4941644;28;20842;-69
2022/07/23 11:00:17;;;;;;;5.80;3.22;;;;;;;22.86;54.46;102023.97;4941542;28;20024;-69
2022/07/23 11:02:47;;;;;;;4.43;3.42;;;;;;;22.96;54.88;102024.84;4945833;28;20027;-69
2022/07/23 11:05:25;;;;;;;4.60;3.30;;;;;;;22.97;53.63;102027.47;4941607;28;20032;-68
2022/07/23 11:08:10;;;;;;;6.05;3.22;;;;;;;23.07;53.91;102032.66;4944344;28;20054;-69
2022/07/23 11:10:53;;;;;;;4.40;2.40;;;;;;;23.08;53.43;102023.91;4947531;28;20023;-68
2022/07/23 11:13:21;;;;;;;4.47;1.98;;;;;;;23.10;51.89;102023.00;4944669;28;20039;-68
2022/07/23 11:16:04;;;;;;;4.68;2.25;;;;;;;23.16;51.71;102025.59;4942285;28;20058;-67
2022/07/23 11:18:47;;;;;;;5.78;1.73;;;;;;;23.26;53.30;102018.56;4946724;28;20075;-65
2022/07/23 11:21:31;;;;;;;4.13;2.20;;;;;;;23.28;52.22;102022.91;4944900;28;20039;-65
2022/07/23 11:23:56;;;;;;;3.45;2.45;;;;;;;23.27;50.54;102015.91;4945254;28;20027;-66
2022/07/23 11:26:41;;;;;;;3.67;2.05;;;;;;;23.37;51.56;102010.63;4944901;28;20566;-70
2022/07/23 11:29:25;;;;;;;3.80;1.80;;;;;;;23.48;52.76;102009.66;4945549;28;20028;-68
2022/07/23 11:32:01;;;;;;;4.82;2.10;;;;;;;23.50;51.02;102007.91;4940505;29;20046;-73